sensor_id;sensor_type;location;lat;lon;timestamp;pressure;altitude;pressure_sealevel;temperature;humidity
10909;BME280;5507;48.548;8.720;2022-12-10T00:01:12;71491.78;;;1.85;100.00
10909;BME280;5507;48.548;8.720;2022-12-10T00:03:38;71496.19;;;1.86;100.00
10909;BME280;5507;48.548;8.720;2022-12-10T00:06:06;71492.00;;;1.87;100.00
10909;BME280;5507;48.548;8.720;2022-12-10T00:08:32;71497.34;;;1.87;100.00
10909;BME280;5507;48.548;8.720;2022-12-10T00:10:58;71490.63;;;1.84;100.00
10909;BME280;5507;48.548;8.720;2022-12-10T00:13:24;71492.94;;;1.86;100.00
10909;BME280;5507;48.548;8.720;2022-12-10T00:15:49;71497.72;;;1.85;100.00
10909;BME280;5507;48.548;8.720;2022-12-10T00:18:14;71495.06;;;1.85;100.00
10909;BME280;5507;48.548;8.720;2022-12-10T00:20:40;71496.19;;;1.86;100.00
10909;BME280;5507;48.548;8.720;2022-12-10T00:23:05;71495.84;;;1.88;100.00
10909;BME280;5507;48.548;8.720;2022-12-10T00:25:34;71496.78;;;1.87;100.00
10909;BME280;5507;48.548;8.720;2022-12-10T00:27:59;71502.59;;;1.92;100.00
10909;BME280;5507;48.548;8.720;2022-12-10T00:30:24;71497.00;;;1.90;100.00
10909;BME280;5507;48.548;8.720;2022-12-10T00:32:50;71487.72;;;1.81;100.00
10909;BME280;5507;48.548;8.720;2022-12-10T00:35:15;71494.47;;;1.85;100.00
10909;BME280;5507;48.548;8.720;2022-12-10T00:37:41;71477.47;;;1.75;100.00
10909;BME280;5507;48.548;8.720;2022-12-10T00:40:06;71472.63;;;1.68;100.00
10909;BME280;5507;48.548;8.720;2022-12-10T00:42:32;71472.25;;;1.70;100.00
10909;BME280;5507;48.548;8.720;2022-12-10T00:44:57;71485.19;;;1.77;100.00
10909;BME280;5507;48.548;8.720;2022-12-10T00:47:23;71485.63;;;1.82;100.00
10909;BME280;5507;48.548;8.720;2022-12-10T00:49:48;71485.97;;;1.80;100.00
10909;BME280;5507;48.548;8.720;2022-12-10T00:52:13;71484.22;;;1.78;100.00
10909;BME280;5507;48.548;8.720;2022-12-10T00:54:38;71487.72;;;1.81;100.00
10909;BME280;5507;48.548;8.720;2022-12-10T00:57:04;71474.38;;;1.70;100.00
10909;BME280;5507;48.548;8.720;2022-12-10T00:59:29;71478.22;;;1.71;100.00
10909;BME280;5507;48.548;8.720;2022-12-10T01:01:54;71472.03;;;1.68;100.00
10909;BME280;5507;48.548;8.720;2022-12-10T01:04:20;71478.06;;;1.75;100.00
10909;BME280;5507;48.548;8.720;2022-12-10T01:06:53;71481.69;;;1.74;100.00
10909;BME280;5507;48.548;8.720;2022-12-10T01:09:21;71480.16;;;1.75;100.00
10909;BME280;5507;48.548;8.720;2022-12-10T01:11:48;71481.13;;;1.73;100.00
10909;BME280;5507;48.548;8.720;2022-12-10T01:14:17;71486.91;;;1.78;100.00
10909;BME280;5507;48.548;8.720;2022-12-10T01:16:43;71498.72;;;1.91;100.00
10909;BME280;5507;48.548;8.720;2022-12-10T01:19:09;71495.84;;;1.88;100.00
10909;BME280;5507;48.548;8.720;2022-12-10T01:21:35;71487.50;;;1.79;100.00
10909;BME280;5507;48.548;8.720;2022-12-10T01:24:01;71490.03;;;1.83;100.00
10909;BME280;5507;48.548;8.720;2022-12-10T01:26:31;71495.84;;;1.88;100.00
10909;BME280;5507;48.548;8.720;2022-12-10T01:28:56;71501.22;;;1.88;100.00
10909;BME280;5507;48.548;8.720;2022-12-10T01:31:27;71500.63;;;1.88;100.00
10909;BME280;5507;48.548;8.720;2022-12-10T01:33:53;71495.25;;;1.88;100.00
10909;BME280;5507;48.548;8.720;2022-12-10T01:36:24;71488.50;;;1.84;100.00
10909;BME280;5507;48.548;8.720;2022-12-10T01:38:51;71486.75;;;1.83;100.00
10909;BME280;5507;48.548;8.720;2022-12-10T01:41:21;71492.13;;;1.83;100.00
10909;BME280;5507;48.548;8.720;2022-12-10T01:43:59;71491.00;;;1.82;100.00
10909;BME280;5507;48.548;8.720;2022-12-10T01:46:28;71486.56;;;1.80;100.00
10909;BME280;5507;48.548;8.720;2022-12-10T01:48:53;71481.91;;;1.76;100.00
10909;BME280;5507;48.548;8.720;2022-12-10T01:51:20;71490.41;;;1.81;100.00
10909;BME280;5507;48.548;8.720;2022-12-10T01:53:46;71490.63;;;1.84;100.00
10909;BME280;5507;48.548;8.720;2022-12-10T01:56:13;71492.38;;;1.85;100.00
10909;BME280;5507;48.548;8.720;2022-12-10T01:58:40;71491.00;;;1.82;100.00
10909;BME280;5507;48.548;8.720;2022-12-10T02:01:28;71488.50;;;1.84;100.00
10909;BME280;5507;48.548;8.720;2022-12-10T02:13:35;71470.88;;;1.67;100.00
10909;BME280;5507;48.548;8.720;2022-12-10T02:15:31;71465.44;;;1.60;100.00
10909;BME280;5507;48.548;8.720;2022-12-10T02:18:04;71465.88;;;1.65;100.00
10909;BME280;5507;48.548;8.720;2022-12-10T02:20:36;71482.63;;;1.72;100.00
10909;BME280;5507;48.548;8.720;2022-12-10T02:23:06;71466.47;;;1.65;100.00
10909;BME280;5507;48.548;8.720;2022-12-10T02:28:17;71465.44;;;1.60;100.00
10909;BME280;5507;48.548;8.720;2022-12-10T02:30:45;71456.03;;;1.56;100.00
10909;BME280;5507;48.548;8.720;2022-12-10T02:33:14;71469.38;;;1.68;100.00
10909;BME280;5507;48.548;8.720;2022-12-10T02:35:41;71477.06;;;1.70;100.00
10909;BME280;5507;48.548;8.720;2022-12-10T02:38:12;71477.84;;;1.73;100.00
10909;BME280;5507;48.548;8.720;2022-12-10T02:40:46;71479.03;;;1.74;100.00
10909;BME280;5507;48.548;8.720;2022-12-10T02:43:14;71479.38;;;1.72;100.00
10909;BME280;5507;48.548;8.720;2022-12-10T02:45:41;71485.97;;;1.80;100.00
10909;BME280;5507;48.548;8.720;2022-12-10T02:48:07;71486.34;;;1.78;100.00
10909;BME280;5507;48.548;8.720;2022-12-10T02:50:33;71487.13;;;1.81;100.00
10909;BME280;5507;48.548;8.720;2022-12-10T02:52:59;71496.44;;;1.89;100.00
10909;BME280;5507;48.548;8.720;2022-12-10T02:55:24;71496.56;;;1.84;100.00
10909;BME280;5507;48.548;8.720;2022-12-10T03:00:42;71493.88;;;1.84;100.00
10909;BME280;5507;48.548;8.720;2022-12-10T03:03:25;71493.16;;;1.88;100.00
10909;BME280;5507;48.548;8.720;2022-12-10T03:08:51;71498.72;;;1.91;100.00
10909;BME280;5507;48.548;8.720;2022-12-10T03:11:18;71503.38;;;1.95;100.00
10909;BME280;5507;48.548;8.720;2022-12-10T03:14:01;71505.72;;;1.97;100.00
10909;BME280;5507;48.548;8.720;2022-12-10T03:16:32;71488.88;;;1.82;100.00
10909;BME280;5507;48.548;8.720;2022-12-10T03:19:07;71480.75;;;1.75;100.00
10909;BME280;5507;48.548;8.720;2022-12-10T03:21:37;71493.31;;;1.84;100.00
10909;BME280;5507;48.548;8.720;2022-12-10T03:24:04;71496.78;;;1.87;100.00
10909;BME280;5507;48.548;8.720;2022-12-10T03:26:30;71498.72;;;1.91;100.00
10909;BME280;5507;48.548;8.720;2022-12-10T03:29:01;71497.59;;;1.90;100.00
10909;BME280;5507;48.548;8.720;2022-12-10T03:31:29;71504.34;;;1.94;100.00
10909;BME280;5507;48.548;8.720;2022-12-10T03:33:55;71507.44;;;1.99;100.00
10909;BME280;5507;48.548;8.720;2022-12-10T03:36:21;71498.72;;;1.91;100.00
10909;BME280;5507;48.548;8.720;2022-12-10T03:38:47;71502.22;;;1.94;100.00
10909;BME280;5507;48.548;8.720;2022-12-10T03:41:12;71508.97;;;1.98;100.00
10909;BME280;5507;48.548;8.720;2022-12-10T03:43:58;71496.63;;;1.92;100.00
10909;BME280;5507;48.548;8.720;2022-12-10T03:46:26;71492.38;;;1.85;100.00
10909;BME280;5507;48.548;8.720;2022-12-10T03:48:52;71495.25;;;1.88;100.00
10909;BME280;5507;48.548;8.720;2022-12-10T03:51:19;71502.00;;;1.92;100.00
10909;BME280;5507;48.548;8.720;2022-12-10T03:53:44;71503.97;;;1.96;100.00
10909;BME280;5507;48.548;8.720;2022-12-10T03:56:10;71498.88;;;1.86;100.00
10909;BME280;5507;48.548;8.720;2022-12-10T03:58:35;71506.44;;;1.93;100.00
10909;BME280;5507;48.548;8.720;2022-12-10T04:01:02;71478.44;;;1.73;100.00
10909;BME280;5507;48.548;8.720;2022-12-10T04:03:27;71472.03;;;1.68;100.00
10909;BME280;5507;48.548;8.720;2022-12-10T04:05:52;71474.00;;;1.72;100.00
10909;BME280;5507;48.548;8.720;2022-12-10T04:08:18;71478.44;;;1.73;100.00
10909;BME280;5507;48.548;8.720;2022-12-10T04:10:43;71486.56;;;1.80;100.00
10909;BME280;5507;48.548;8.720;2022-12-10T04:13:08;71482.50;;;1.77;100.00
10909;BME280;5507;48.548;8.720;2022-12-10T04:15:52;71484.47;;;1.81;100.00
10909;BME280;5507;48.548;8.720;2022-12-10T04:18:36;71491.34;;;1.80;100.00
10909;BME280;5507;48.548;8.720;2022-12-10T04:21:01;71489.44;;;1.83;100.00
10909;BME280;5507;48.548;8.720;2022-12-10T04:23:46;71489.44;;;1.83;100.00
10909;BME280;5507;48.548;8.720;2022-12-10T04:26:30;71480.53;;;1.73;100.00
10909;BME280;5507;48.548;8.720;2022-12-10T04:29:14;71495.25;;;1.88;100.00
10909;BME280;5507;48.548;8.720;2022-12-10T04:31:39;71497.22;;;1.92;100.00
10909;BME280;5507;48.548;8.720;2022-12-10T04:34:04;71496.78;;;1.87;100.00
10909;BME280;5507;48.548;8.720;2022-12-10T04:36:29;71496.44;;;1.89;100.00
10909;BME280;5507;48.548;8.720;2022-12-10T04:38:55;71506.06;;;1.95;100.00
10909;BME280;5507;48.548;8.720;2022-12-10T04:41:20;71499.91;;;1.92;100.00
10909;BME280;5507;48.548;8.720;2022-12-10T04:43:45;71503.75;;;1.93;100.00
10909;BME280;5507;48.548;8.720;2022-12-10T04:46:11;71503.16;;;1.93;100.00
10909;BME280;5507;48.548;8.720;2022-12-10T04:48:36;71503.03;;;1.97;100.00
10909;BME280;5507;48.548;8.720;2022-12-10T04:51:02;71504.91;;;1.94;100.00
10909;BME280;5507;48.548;8.720;2022-12-10T04:53:27;71492.94;;;1.86;100.00
10909;BME280;5507;48.548;8.720;2022-12-10T04:55:53;71487.72;;;1.81;100.00
10909;BME280;5507;48.548;8.720;2022-12-10T04:58:18;71496.78;;;1.87;100.00
10909;BME280;5507;48.548;8.720;2022-12-10T05:00:44;71488.88;;;1.82;100.00
10909;BME280;5507;48.548;8.720;2022-12-10T05:03:09;71474.38;;;1.70;100.00
10909;BME280;5507;48.548;8.720;2022-12-10T05:05:35;71487.50;;;1.79;100.00
10909;BME280;5507;48.548;8.720;2022-12-10T05:08:00;71485.38;;;1.79;100.00
10909;BME280;5507;48.548;8.720;2022-12-10T05:10:26;71489.25;;;1.80;100.00
10909;BME280;5507;48.548;8.720;2022-12-10T05:12:51;71484.59;;;1.76;100.00
10909;BME280;5507;48.548;8.720;2022-12-10T05:15:17;71496.78;;;1.87;100.00
10909;BME280;5507;48.548;8.720;2022-12-10T05:17:43;71502.00;;;1.92;100.00
10909;BME280;5507;48.548;8.720;2022-12-10T05:20:08;71497.94;;;1.88;100.00
10909;BME280;5507;48.548;8.720;2022-12-10T05:22:34;71492.38;;;1.85;100.00
10909;BME280;5507;48.548;8.720;2022-12-10T05:25:18;71496.78;;;1.87;100.00
10909;BME280;5507;48.548;8.720;2022-12-10T05:27:43;71489.44;;;1.83;100.00
10909;BME280;5507;48.548;8.720;2022-12-10T05:30:09;71483.66;;;1.78;100.00
10909;BME280;5507;48.548;8.720;2022-12-10T05:32:35;71484.00;;;1.76;100.00
10909;BME280;5507;48.548;8.720;2022-12-10T05:35:00;71487.13;;;1.81;100.00
10909;BME280;5507;48.548;8.720;2022-12-10T05:37:26;71495.84;;;1.88;100.00
10909;BME280;5507;48.548;8.720;2022-12-10T05:39:52;71486.91;;;1.78;100.00
10909;BME280;5507;48.548;8.720;2022-12-10T05:42:17;71475.75;;;1.73;100.00
10909;BME280;5507;48.548;8.720;2022-12-10T05:44:42;71491.56;;;1.82;100.00
10909;BME280;5507;48.548;8.720;2022-12-10T05:47:07;71480.97;;;1.78;100.00
10909;BME280;5507;48.548;8.720;2022-12-10T05:49:33;71489.44;;;1.83;100.00
10909;BME280;5507;48.548;8.720;2022-12-10T05:51:58;71495.63;;;1.86;100.00
10909;BME280;5507;48.548;8.720;2022-12-10T05:54:23;71488.66;;;1.80;100.00
10909;BME280;5507;48.548;8.720;2022-12-10T05:56:49;71488.06;;;1.79;100.00
10909;BME280;5507;48.548;8.720;2022-12-10T05:59:14;71478.44;;;1.73;100.00
10909;BME280;5507;48.548;8.720;2022-12-10T06:01:40;71474.59;;;1.72;100.00
10909;BME280;5507;48.548;8.720;2022-12-10T06:04:05;71481.34;;;1.76;100.00
10909;BME280;5507;48.548;8.720;2022-12-10T06:06:36;71476.09;;;1.71;100.00
10909;BME280;5507;48.548;8.720;2022-12-10T06:09:03;71479.94;;;1.72;100.00
10909;BME280;5507;48.548;8.720;2022-12-10T06:11:28;71478.22;;;1.71;100.00
10909;BME280;5507;48.548;8.720;2022-12-10T06:13:55;71478.22;;;1.71;100.00
10909;BME280;5507;48.548;8.720;2022-12-10T06:16:22;71477.06;;;1.70;100.00
10909;BME280;5507;48.548;8.720;2022-12-10T06:18:47;71470.88;;;1.67;100.00
10909;BME280;5507;48.548;8.720;2022-12-10T06:21:14;71480.41;;;1.77;100.00
10909;BME280;5507;48.548;8.720;2022-12-10T06:23:41;71482.72;;;1.79;100.00
10909;BME280;5507;48.548;8.720;2022-12-10T06:26:09;71482.50;;;1.77;100.00
10909;BME280;5507;48.548;8.720;2022-12-10T06:28:36;71487.72;;;1.81;100.00
10909;BME280;5507;48.548;8.720;2022-12-10T06:31:01;71477.06;;;1.70;100.00
10909;BME280;5507;48.548;8.720;2022-12-10T06:33:26;71490.16;;;1.79;100.00
10909;BME280;5507;48.548;8.720;2022-12-10T06:35:52;71476.34;;;1.74;100.00
10909;BME280;5507;48.548;8.720;2022-12-10T06:38:17;71485.75;;;1.77;100.00
10909;BME280;5507;48.548;8.720;2022-12-10T06:40:43;71479.94;;;1.72;100.00
10909;BME280;5507;48.548;8.720;2022-12-10T06:43:08;71483.44;;;1.75;100.00
10909;BME280;5507;48.548;8.720;2022-12-10T06:45:33;71484.00;;;1.76;100.00
10909;BME280;5507;48.548;8.720;2022-12-10T06:47:59;71481.34;;;1.76;100.00
10909;BME280;5507;48.548;8.720;2022-12-10T06:50:24;71486.56;;;1.80;100.00
10909;BME280;5507;48.548;8.720;2022-12-10T06:52:50;71475.31;;;1.68;100.00
10909;BME280;5507;48.548;8.720;2022-12-10T06:55:16;71479.03;;;1.74;100.00
10909;BME280;5507;48.548;8.720;2022-12-10T06:57:41;71476.09;;;1.71;100.00
10909;BME280;5507;48.548;8.720;2022-12-10T07:00:07;71488.44;;;1.77;100.00
10909;BME280;5507;48.548;8.720;2022-12-10T07:02:33;71470.88;;;1.67;100.00
10909;BME280;5507;48.548;8.720;2022-12-10T07:04:59;71467.63;;;1.66;100.00
10909;BME280;5507;48.548;8.720;2022-12-10T07:07:24;71469.94;;;1.68;100.00
10909;BME280;5507;48.548;8.720;2022-12-10T07:09:50;71460.22;;;1.55;100.00
10909;BME280;5507;48.548;8.720;2022-12-10T07:12:16;71463.34;;;1.60;100.00
10909;BME280;5507;48.548;8.720;2022-12-10T07:14:41;71470.88;;;1.67;100.00
10909;BME280;5507;48.548;8.720;2022-12-10T07:17:06;71464.50;;;1.61;100.00
10909;BME280;5507;48.548;8.720;2022-12-10T07:19:32;71469.50;;;1.63;100.00
10909;BME280;5507;48.548;8.720;2022-12-10T07:21:57;71465.66;;;1.62;100.00
10909;BME280;5507;48.548;8.720;2022-12-10T07:24:22;71461.00;;;1.58;100.00
10909;BME280;5507;48.548;8.720;2022-12-10T07:26:48;71458.91;;;1.59;100.00
10909;BME280;5507;48.548;8.720;2022-12-10T07:29:18;71473.22;;;1.69;100.00
10909;BME280;5507;48.548;8.720;2022-12-10T07:31:44;71479.59;;;1.74;100.00
10909;BME280;5507;48.548;8.720;2022-12-10T07:34:11;71466.81;;;1.63;100.00
10909;BME280;5507;48.548;8.720;2022-12-10T07:36:37;71474.59;;;1.72;100.00
10909;BME280;5507;48.548;8.720;2022-12-10T07:39:06;71475.31;;;1.68;100.00
10909;BME280;5507;48.548;8.720;2022-12-10T07:41:32;71462.97;;;1.62;100.00
10909;BME280;5507;48.548;8.720;2022-12-10T07:43:58;71474.38;;;1.70;100.00
10909;BME280;5507;48.548;8.720;2022-12-10T07:46:26;71469.50;;;1.63;100.00
10909;BME280;5507;48.548;8.720;2022-12-10T07:48:51;71456.75;;;1.52;100.00
10909;BME280;5507;48.548;8.720;2022-12-10T07:51:19;71452.53;;;1.53;100.00
10909;BME280;5507;48.548;8.720;2022-12-10T07:53:45;71467.41;;;1.64;100.00
10909;BME280;5507;48.548;8.720;2022-12-10T07:56:11;71469.72;;;1.66;100.00
10909;BME280;5507;48.548;8.720;2022-12-10T07:58:37;71459.50;;;1.59;100.00
10909;BME280;5507;48.548;8.720;2022-12-10T08:01:10;71462.19;;;1.59;100.00
10909;BME280;5507;48.548;8.720;2022-12-10T08:03:45;71463.13;;;1.58;100.00
10909;BME280;5507;48.548;8.720;2022-12-10T08:06:15;71467.19;;;1.61;100.00
10909;BME280;5507;48.548;8.720;2022-12-10T08:08:46;71463.94;;;1.61;100.00
10909;BME280;5507;48.548;8.720;2022-12-10T08:11:13;71463.34;;;1.60;100.00
10909;BME280;5507;48.548;8.720;2022-12-10T08:13:39;71461.00;;;1.58;100.00
10909;BME280;5507;48.548;8.720;2022-12-10T08:16:11;71468.00;;;1.64;100.00
10909;BME280;5507;48.548;8.720;2022-12-10T08:18:37;71492.38;;;1.85;100.00
10909;BME280;5507;48.548;8.720;2022-12-10T08:21:08;71479.22;;;1.76;100.00
10909;BME280;5507;48.548;8.720;2022-12-10T08:23:34;71501.41;;;1.91;100.00
10909;BME280;5507;48.548;8.720;2022-12-10T08:26:03;71497.34;;;1.87;100.00
10909;BME280;5507;48.548;8.720;2022-12-10T08:28:29;71499.31;;;1.92;100.00
10909;BME280;5507;48.548;8.720;2022-12-10T08:30:54;71505.34;;;1.99;100.00
10909;BME280;5507;48.548;8.720;2022-12-10T08:33:19;71501.66;;;1.94;100.00
10909;BME280;5507;48.548;8.720;2022-12-10T08:35:45;71508.41;;;1.97;100.00
10909;BME280;5507;48.548;8.720;2022-12-10T08:38:10;71510.72;;;1.99;100.00
10909;BME280;5507;48.548;8.720;2022-12-10T08:40:39;71512.81;;;1.99;100.00
10909;BME280;5507;48.548;8.720;2022-12-10T08:43:04;71512.31;;;2.05;100.00
10909;BME280;5507;48.548;8.720;2022-12-10T08:45:29;71510.13;;;1.99;100.00
10909;BME280;5507;48.548;8.720;2022-12-10T08:47:55;71512.25;;;1.98;100.00
10909;BME280;5507;48.548;8.720;2022-12-10T08:50:20;71518.47;;;2.08;100.00
10909;BME280;5507;48.548;8.720;2022-12-10T08:52:45;71518.25;;;2.06;100.00
10909;BME280;5507;48.548;8.720;2022-12-10T08:55:11;71524.06;;;2.11;100.00
10909;BME280;5507;48.548;8.720;2022-12-10T08:57:36;71522.09;;;2.07;100.00
10909;BME280;5507;48.548;8.720;2022-12-10T09:00:02;71526.97;;;2.13;100.00
10909;BME280;5507;48.548;8.720;2022-12-10T09:02:28;71536.03;;;2.19;100.00
10909;BME280;5507;48.548;8.720;2022-12-10T09:04:53;71527.75;;;2.16;100.00
10909;BME280;5507;48.548;8.720;2022-12-10T09:07:19;71516.72;;;2.07;100.00
10909;BME280;5507;48.548;8.720;2022-12-10T09:09:44;71520.22;;;2.10;100.00
10909;BME280;5507;48.548;8.720;2022-12-10T09:12:09;71525.44;;;2.14;100.00
10909;BME280;5507;48.548;8.720;2022-12-10T09:14:35;71519.84;;;2.12;100.00
10909;BME280;5507;48.548;8.720;2022-12-10T09:17:03;71522.75;;;2.14;100.00
10909;BME280;5507;48.548;8.720;2022-12-10T09:19:28;71529.28;;;2.15;100.00
10909;BME280;5507;48.548;8.720;2022-12-10T09:21:54;71529.50;;;2.18;100.00
10909;BME280;5507;48.548;8.720;2022-12-10T09:24:19;71547.66;;;2.29;100.00
10909;BME280;5507;48.548;8.720;2022-12-10T09:26:44;71539.00;;;2.28;100.00
10909;BME280;5507;48.548;8.720;2022-12-10T09:29:09;71538.56;;;2.23;100.00
10909;BME280;5507;48.548;8.720;2022-12-10T09:31:35;71529.28;;;2.15;100.00
10909;BME280;5507;48.548;8.720;2022-12-10T09:34:00;71523.69;;;2.13;100.00
10909;BME280;5507;48.548;8.720;2022-12-10T09:36:25;71539.94;;;2.27;100.00
10909;BME280;5507;48.548;8.720;2022-12-10T09:38:51;71547.50;;;2.33;100.00
10909;BME280;5507;48.548;8.720;2022-12-10T09:44:14;71546.53;;;2.35;100.00
10909;BME280;5507;48.548;8.720;2022-12-10T09:46:53;71563.53;;;2.45;100.00
10909;BME280;5507;48.548;8.720;2022-12-10T09:52:06;71562.03;;;2.46;100.00
10909;BME280;5507;48.548;8.720;2022-12-10T09:54:59;71564.34;;;2.48;100.00
10909;BME280;5507;48.548;8.720;2022-12-10T09:57:31;71573.78;;;2.52;100.00
10909;BME280;5507;48.548;8.720;2022-12-10T10:00:15;71576.31;;;2.56;100.00
10909;BME280;5507;48.548;8.720;2022-12-10T10:02:43;71586.19;;;2.65;100.00
10909;BME280;5507;48.548;8.720;2022-12-10T10:07:37;71573.78;;;2.52;100.00
10909;BME280;5507;48.548;8.720;2022-12-10T10:10:09;71579.78;;;2.59;100.00
10909;BME280;5507;48.548;8.720;2022-12-10T10:12:42;71586.97;;;2.68;100.00
10909;BME280;5507;48.548;8.720;2022-12-10T10:15:16;71592.59;;;2.70;100.00
10909;BME280;5507;48.548;8.720;2022-12-10T10:17:43;71583.28;;;2.62;100.00
10909;BME280;5507;48.548;8.720;2022-12-10T10:20:12;71591.03;;;2.71;100.00
10909;BME280;5507;48.548;8.720;2022-12-10T10:22:39;71585.59;;;2.64;100.00
10909;BME280;5507;48.548;8.720;2022-12-10T10:25:07;71595.13;;;2.75;100.00
10909;BME280;5507;48.548;8.720;2022-12-10T10:27:37;71591.63;;;2.72;100.00
10909;BME280;5507;48.548;8.720;2022-12-10T10:30:05;71596.66;;;2.74;100.00
10909;BME280;5507;48.548;8.720;2022-12-10T10:35:06;71600.13;;;2.77;100.00
10909;BME280;5507;48.548;8.720;2022-12-10T10:37:40;71593.59;;;2.76;100.00
10909;BME280;5507;48.548;8.720;2022-12-10T10:40:12;71596.06;;;2.73;100.00
10909;BME280;5507;48.548;8.720;2022-12-10T10:42:46;71574.78;;;2.57;100.00
10909;BME280;5507;48.548;8.720;2022-12-10T10:48:10;71596.28;;;2.76;100.00
10909;BME280;5507;48.548;8.720;2022-12-10T10:50:44;71606.16;;;2.85;100.00
10909;BME280;5507;48.548;8.720;2022-12-10T10:53:29;71625.13;;;2.99;100.00
10909;BME280;5507;48.548;8.720;2022-12-10T10:56:22;71608.25;;;2.84;100.00
10909;BME280;5507;48.548;8.720;2022-12-10T11:01:42;71602.09;;;2.81;100.00
10909;BME280;5507;48.548;8.720;2022-12-10T11:08:04;71628.22;;;3.04;100.00
10909;BME280;5507;48.548;8.720;2022-12-10T11:10:31;71605.81;;;2.87;100.00
10909;BME280;5507;48.548;8.720;2022-12-10T11:13:04;71627.44;;;3.01;100.00
10909;BME280;5507;48.548;8.720;2022-12-10T11:15:40;71602.47;;;2.79;100.00
10909;BME280;5507;48.548;8.720;2022-12-10T11:18:32;71651.25;;;3.21;100.00
10909;BME280;5507;48.548;8.720;2022-12-10T11:21:05;71629.19;;;3.02;100.00
10909;BME280;5507;48.548;8.720;2022-12-10T11:23:37;71654.16;;;3.24;100.00
10909;BME280;5507;48.548;8.720;2022-12-10T11:43:40;71610.22;;;2.88;100.00
10909;BME280;5507;48.548;8.720;2022-12-10T11:56:48;71606.53;;;2.83;100.00
10909;BME280;5507;48.548;8.720;2022-12-10T12:00:05;71605.94;;;2.82;100.00
10909;BME280;5507;48.548;8.720;2022-12-10T12:06:41;71611.53;;;2.85;100.00
10909;BME280;5507;48.548;8.720;2022-12-10T12:09:53;71622.44;;;2.99;100.00
10909;BME280;5507;48.548;8.720;2022-12-10T12:16:47;71578.50;;;2.63;100.00
10909;BME280;5507;48.548;8.720;2022-12-10T12:19:49;71612.56;;;2.90;100.00
10909;BME280;5507;48.548;8.720;2022-12-10T12:30:40;71612.13;;;2.85;100.00
10909;BME280;5507;48.548;8.720;2022-12-10T13:01:32;71632.66;;;3.05;100.00
10909;BME280;5507;48.548;8.720;2022-12-10T13:32:23;71624.75;;;3.01;100.00
10909;BME280;5507;48.548;8.720;2022-12-10T13:39:52;71594.09;;;2.69;100.00
10909;BME280;5507;48.548;8.720;2022-12-10T13:50:19;71576.69;;;2.54;100.00
10909;BME280;5507;48.548;8.720;2022-12-10T13:53:57;71554.25;;;2.37;100.00
10909;BME280;5507;48.548;8.720;2022-12-10T14:04:32;71559.69;;;2.44;100.00
10909;BME280;5507;48.548;8.720;2022-12-10T14:12:00;71587.34;;;2.66;100.00
10909;BME280;5507;48.548;8.720;2022-12-10T14:15:28;71578.66;;;2.58;100.00
10909;BME280;5507;48.548;8.720;2022-12-10T14:22:20;71554.84;;;2.38;100.00
10909;BME280;5507;48.548;8.720;2022-12-10T14:29:08;71591.78;;;2.67;100.00
10909;BME280;5507;48.548;8.720;2022-12-10T14:31:44;71595.13;;;2.75;100.00
10909;BME280;5507;48.548;8.720;2022-12-10T14:34:18;71574.22;;;2.57;100.00
10909;BME280;5507;48.548;8.720;2022-12-10T14:36:49;71578.06;;;2.58;100.00
10909;BME280;5507;48.548;8.720;2022-12-10T14:39:41;71575.72;;;2.56;100.00
10909;BME280;5507;48.548;8.720;2022-12-10T14:42:13;71574.00;;;2.54;100.00
10909;BME280;5507;48.548;8.720;2022-12-10T14:44:41;71553.31;;;2.39;100.00
10909;BME280;5507;48.548;8.720;2022-12-10T14:47:17;71552.50;;;2.35;100.00
10909;BME280;5507;48.548;8.720;2022-12-10T14:49:50;71546.13;;;2.30;100.00
10909;BME280;5507;48.548;8.720;2022-12-10T14:52:19;71546.47;;;2.28;100.00
10909;BME280;5507;48.548;8.720;2022-12-10T14:54:47;71516.38;;;2.09;100.00
10909;BME280;5507;48.548;8.720;2022-12-10T14:57:29;71556.56;;;2.39;100.00
10909;BME280;5507;48.548;8.720;2022-12-10T15:00:16;71562.38;;;2.44;100.00
10909;BME280;5507;48.548;8.720;2022-12-10T15:02:54;71558.53;;;2.43;100.00
10909;BME280;5507;48.548;8.720;2022-12-10T15:05:27;71563.16;;;2.47;100.00
10909;BME280;5507;48.548;8.720;2022-12-10T15:07:56;71549.16;;;2.28;100.00
10909;BME280;5507;48.548;8.720;2022-12-10T15:10:28;71510.94;;;2.02;100.00
10909;BME280;5507;48.548;8.720;2022-12-10T15:12:57;71521.94;;;2.11;100.00
10909;BME280;5507;48.548;8.720;2022-12-10T15:15:36;71519.41;;;2.07;100.00
10909;BME280;5507;48.548;8.720;2022-12-10T15:18:12;71508.16;;;1.95;100.00
10909;BME280;5507;48.548;8.720;2022-12-10T15:23:23;71469.72;;;1.66;100.00
10909;BME280;5507;48.548;8.720;2022-12-10T15:26:23;71470.09;;;1.64;100.00
10909;BME280;5507;48.548;8.720;2022-12-10T15:31:58;71446.53;;;1.46;100.00
10909;BME280;5507;48.548;8.720;2022-12-10T15:34:27;71471.59;;;1.63;100.00
10909;BME280;5507;48.548;8.720;2022-12-10T15:37:01;71459.88;;;1.57;100.00
10909;BME280;5507;48.548;8.720;2022-12-10T15:39:33;71459.44;;;1.52;100.00
10909;BME280;5507;48.548;8.720;2022-12-10T15:42:26;71457.78;;;1.58;100.00
10909;BME280;5507;48.548;8.720;2022-12-10T15:45:20;71445.34;;;1.45;100.00
10909;BME280;5507;48.548;8.720;2022-12-10T15:47:50;71437.81;;;1.38;100.00
10909;BME280;5507;48.548;8.720;2022-12-10T15:50:19;71429.91;;;1.33;100.00
10909;BME280;5507;48.548;8.720;2022-12-10T15:52:48;71436.06;;;1.36;100.00
10909;BME280;5507;48.548;8.720;2022-12-10T15:55:14;71450.72;;;1.45;100.00
10909;BME280;5507;48.548;8.720;2022-12-10T15:57:42;71453.84;;;1.50;100.00
10909;BME280;5507;48.548;8.720;2022-12-10T16:00:25;71433.53;;;1.32;100.00
10909;BME280;5507;48.548;8.720;2022-12-10T16:03:11;71438.97;;;1.39;100.00
10909;BME280;5507;48.548;8.720;2022-12-10T16:05:41;71424.25;;;1.24;100.00
10909;BME280;5507;48.548;8.720;2022-12-10T16:08:16;71439.69;;;1.35;100.00
10909;BME280;5507;48.548;8.720;2022-12-10T16:10:44;71403.94;;;1.06;100.00
10909;BME280;5507;48.548;8.720;2022-12-10T16:13:22;71421.56;;;1.24;100.00
10909;BME280;5507;48.548;8.720;2022-12-10T16:15:54;71417.28;;;1.18;100.00
10909;BME280;5507;48.548;8.720;2022-12-10T16:18:23;71441.66;;;1.39;100.00
10909;BME280;5507;48.548;8.720;2022-12-10T16:20:49;71425.03;;;1.27;100.00
10909;BME280;5507;48.548;8.720;2022-12-10T16:23:15;71434.91;;;1.35;100.00